Wednesday, February 22, 2017, 12:27 PM EST

KOXB, Ocean City Municipal Airport

Location: Berlin, MD, United States Lat: 38.317
Local Time: 12:27 PM EST (17:27 GMT) Lon: -75.117
Time Zone: US/Eastern Elev: 13 ft

Show me the last for .
Show Decoded

2017-02-22 11:53 METAR KOXB 221653Z AUTO 19005KT 10SM FEW034 OVC060 10/08 A3002 RMK AO2 SLP165
                 T01000083 =
2017-02-22 10:53 METAR KOXB 221553Z AUTO 20004KT 10SM FEW034 SCT070 11/08 A3005 RMK AO2 SLP174
                 T01110083 =
2017-02-22 09:53 METAR KOXB 221453Z AUTO 16003KT 10SM BKN070 11/08 A3006 RMK AO2 SLP179 T01060083
                 50001 =
2017-02-22 08:53 METAR KOXB 221353Z AUTO 19004KT 10SM SCT070 10/09 A3007 RMK AO2 SLP182 T01000094
                 =
2017-02-22 07:53 METAR KOXB 221253Z AUTO 20003KT 10SM FEW070 09/08 A3007 RMK AO2 SLP182 T00940083
                 =
2017-02-22 07:09 METAR KOXB 221209Z AUTO 22003KT 10SM FEW004 FEW065 08/07 A3007 RMK AO2 T00830072
                 =
2017-02-22 06:53 METAR KOXB 221153Z AUTO 00000KT 9SM CLR 07/06 A3006 RMK AO2 SLP178 T00720061
                 10089 20039 55003 =
2017-02-22 05:53 METAR KOXB 221053Z AUTO 21003KT 10SM CLR 08/07 A3006 RMK AO2 SLP178 T00830072 =
2017-02-22 04:53 METAR KOXB 220953Z AUTO 21005KT 10SM CLR 08/07 A3006 RMK AO2 SLP177 T00780067 =
2017-02-22 03:53 METAR KOXB 220853Z AUTO 00000KT 10SM CLR 05/03 A3007 RMK AO2 SLP181 T00500033
                 56021 =
2017-02-22 02:53 METAR KOXB 220753Z AUTO 00000KT 10SM CLR 04/03 A3008 RMK AO2 SLP185 T00440028 =
2017-02-22 01:53 METAR KOXB 220653Z AUTO 00000KT 10SM CLR 05/04 A3010 RMK AO2 SLP193 T00500039 =
2017-02-22 00:53 METAR KOXB 220553Z AUTO 00000KT 10SM CLR 05/04 A3013 RMK AO2 SLP202 T00500039
                 10061 20039 56021 =
2017-02-21 23:53 METAR KOXB 220453Z AUTO 00000KT 10SM CLR 06/03 A3015 RMK AO2 SLP208 T00610033
                 401000022 =
2017-02-21 22:53 METAR KOXB 220353Z AUTO 00000KT 10SM CLR 06/04 A3016 RMK AO2 SLP212 T00610039 =
2017-02-21 21:53 METAR KOXB 220253Z AUTO 00000KT 10SM CLR 06/04 A3019 RMK AO2 SLP223 T00610039
                 58010 =
2017-02-21 20:53 METAR KOXB 220153Z AUTO 00000KT 10SM CLR 06/03 A3021 RMK AO2 SLP228 T00560033 =
2017-02-21 19:53 METAR KOXB 220053Z AUTO VRB03KT 10SM CLR 06/03 A3021 RMK AO2 SLP228 T00610033 =
2017-02-21 18:53 METAR KOXB 212353Z AUTO VRB03KT 10SM CLR 06/03 A3022 RMK AO2 SLP232 T00610033
                 10100 20061 56009 =
2017-02-21 17:53 METAR KOXB 212253Z AUTO 00000KT 10SM CLR 07/03 A3023 RMK AO2 SLP235 T00670033 =
2017-02-21 16:53 METAR KOXB 212153Z AUTO 13005KT 10SM CLR 07/03 A3023 RMK AO2 SLP236 T00720033 =
2017-02-21 15:53 METAR KOXB 212053Z AUTO 12005KT 10SM CLR 08/03 A3025 RMK AO2 SLP241 T00780033
                 56022 =
2017-02-21 14:53 METAR KOXB 211953Z AUTO 12008KT 10SM CLR 08/03 A3026 RMK AO2 SLP245 T00830028 =
2017-02-21 13:53 METAR KOXB 211853Z AUTO 12007KT 10SM CLR 08/03 A3028 RMK AO2 SLP253 T00830028 =
2017-02-21 12:53 METAR KOXB 211753Z AUTO 12006KT 10SM CLR 10/03 A3031 RMK AO2 SLP263 T01000028
                 10100 20028 58012 =

Support USWX by starting your Amazon purchase here.